createdAt,value
2022-11-10T00:00:18.370Z,0.00
2022-11-10T00:05:24.431Z,0.00
2022-11-10T00:10:30.611Z,0.00
2022-11-10T00:15:19.542Z,0.00
2022-11-10T00:20:25.702Z,0.00
2022-11-10T00:25:31.725Z,0.00
2022-11-10T00:30:20.781Z,0.00
2022-11-10T00:35:26.868Z,0.00
2022-11-10T00:40:32.803Z,0.00
2022-11-10T00:45:21.916Z,0.00
2022-11-10T00:50:27.248Z,0.00
2022-11-10T00:55:17.064Z,0.00
2022-11-10T01:00:22.658Z,0.00
2022-11-10T01:05:27.768Z,0.00
2022-11-10T01:10:16.820Z,0.00
2022-11-10T01:15:27.217Z,0.00
2022-11-10T01:20:28.999Z,0.00
2022-11-10T01:25:17.890Z,0.00
2022-11-10T01:30:24.074Z,0.00
2022-11-10T01:35:30.167Z,0.00
2022-11-10T01:40:19.179Z,0.00
2022-11-10T01:45:25.214Z,0.00
2022-11-10T01:50:30.504Z,0.00
2022-11-10T01:55:19.541Z,0.00
2022-11-10T02:00:25.752Z,0.00
2022-11-10T02:05:31.691Z,0.00
2022-11-10T02:10:20.753Z,0.00
2022-11-10T02:15:26.773Z,0.00
2022-11-10T02:20:15.907Z,0.00
2022-11-10T02:25:21.839Z,0.00
2022-11-10T02:30:28.043Z,0.00
2022-11-10T02:35:16.910Z,0.00
2022-11-10T02:40:23.088Z,0.00
2022-11-10T02:45:29.168Z,0.00
2022-11-10T02:50:17.680Z,0.00
2022-11-10T02:55:23.735Z,0.00
2022-11-10T03:00:29.907Z,0.00
2022-11-10T03:05:19.110Z,0.00
2022-11-10T03:10:25.200Z,0.00
2022-11-10T03:15:31.332Z,0.00
2022-11-10T03:20:20.346Z,0.00
2022-11-10T03:25:26.384Z,0.00
2022-11-10T03:30:32.467Z,0.00
2022-11-10T03:35:21.466Z,0.00
2022-11-10T03:40:27.614Z,0.00
2022-11-10T03:45:16.626Z,0.00
2022-11-10T03:50:21.783Z,0.00
2022-11-10T03:55:27.943Z,0.00
2022-11-10T04:00:17.306Z,0.00
2022-11-10T04:05:24.062Z,0.00
2022-11-10T04:10:29.408Z,0.00
2022-11-10T04:15:18.410Z,0.00
2022-11-10T04:20:24.578Z,0.00
2022-11-10T04:25:30.577Z,0.00
2022-11-10T04:30:19.577Z,0.00
2022-11-10T04:35:25.664Z,0.00
2022-11-10T04:40:31.795Z,0.00
2022-11-10T04:45:20.730Z,0.00
2022-11-10T04:50:26.268Z,0.00
2022-11-10T04:55:32.201Z,0.00
2022-11-10T05:00:21.532Z,0.00
2022-11-10T05:05:26.705Z,0.00
2022-11-10T05:10:15.636Z,0.00
2022-11-10T05:15:21.740Z,0.00
2022-11-10T05:20:27.773Z,0.00
2022-11-10T05:25:16.929Z,0.00
2022-11-10T05:30:22.866Z,0.00
2022-11-10T05:35:28.982Z,0.00
2022-11-10T05:40:18.184Z,0.00
2022-11-10T05:45:24.753Z,0.00
2022-11-10T05:50:29.508Z,0.00
2022-11-10T05:55:18.612Z,0.00
2022-11-10T06:00:24.828Z,0.00
2022-11-10T06:05:31.610Z,0.00
2022-11-10T06:10:20.012Z,0.04
2022-11-10T06:15:26.170Z,0.88
2022-11-10T06:20:32.191Z,2.40
2022-11-10T06:25:21.258Z,4.01
2022-11-10T06:30:27.293Z,5.91
2022-11-10T06:35:16.483Z,8.35
2022-11-10T06:40:22.486Z,10.74
2022-11-10T06:45:28.756Z,13.73
2022-11-10T06:50:16.746Z,19.51
2022-11-10T06:55:22.895Z,23.50
2022-11-10T07:00:28.979Z,27.86
2022-11-10T07:05:18.467Z,33.30
2022-11-10T07:10:24.466Z,42.71
2022-11-10T07:15:31.382Z,39.35
2022-11-10T07:20:19.837Z,36.69
2022-11-10T07:25:25.635Z,45.39
2022-11-10T07:30:31.840Z,54.14
2022-11-10T07:35:20.772Z,82.49
2022-11-10T07:40:26.847Z,85.91
2022-11-10T07:45:32.892Z,84.82
2022-11-10T07:50:21.903Z,71.36
2022-11-10T07:55:28.007Z,51.77
2022-11-10T08:00:17.338Z,41.67
2022-11-10T08:05:23.443Z,46.92
2022-11-10T08:10:29.419Z,85.02
2022-11-10T08:15:18.485Z,102.84
2022-11-10T08:20:24.600Z,147.56
2022-11-10T08:25:34.716Z,103.47
2022-11-10T08:30:19.678Z,77.59
2022-11-10T08:35:25.689Z,62.38
2022-11-10T08:40:31.845Z,73.48
2022-11-10T08:45:20.824Z,110.41
2022-11-10T08:50:26.470Z,122.82
2022-11-10T08:55:32.455Z,152.42
2022-11-10T09:00:21.574Z,207.63
2022-11-10T09:05:26.795Z,185.72
2022-11-10T09:10:15.847Z,131.13
2022-11-10T09:15:21.983Z,129.61
2022-11-10T09:20:28.401Z,123.99
2022-11-10T09:25:17.031Z,114.10
2022-11-10T09:30:23.240Z,133.33
2022-11-10T09:35:29.173Z,171.78
2022-11-10T09:40:18.363Z,173.38
2022-11-10T09:45:24.256Z,160.12
2022-11-10T09:50:29.575Z,126.43
2022-11-10T09:55:18.569Z,137.84
2022-11-10T10:00:24.710Z,220.50
2022-11-10T10:05:17.122Z,224.74
2022-11-10T10:10:20.513Z,148.94
2022-11-10T10:15:26.613Z,122.66
2022-11-10T10:20:32.860Z,92.19
2022-11-10T10:25:21.650Z,101.59
2022-11-10T10:30:27.788Z,161.18
2022-11-10T10:35:17.041Z,378.39
2022-11-10T10:40:22.872Z,394.60
2022-11-10T10:45:29.148Z,169.46
2022-11-10T10:50:17.837Z,83.02
2022-11-10T10:55:23.905Z,175.46
2022-11-10T11:00:29.959Z,312.81
2022-11-10T11:05:19.310Z,366.24
2022-11-10T11:10:25.262Z,393.14
2022-11-10T11:15:31.341Z,364.96
2022-11-10T11:20:21.807Z,332.52
2022-11-10T11:25:26.438Z,303.45
2022-11-10T11:30:32.583Z,291.98
2022-11-10T11:35:21.498Z,265.91
2022-11-10T11:40:27.707Z,250.32
2022-11-10T11:45:16.673Z,111.11
2022-11-10T11:50:22.089Z,108.42
2022-11-10T11:55:28.183Z,86.73
2022-11-10T12:00:17.508Z,93.48
2022-11-10T12:05:22.550Z,165.92
2022-11-10T12:10:28.546Z,188.65
2022-11-10T12:15:17.622Z,135.40
2022-11-10T12:20:23.749Z,106.85
2022-11-10T12:25:29.779Z,91.76
2022-11-10T12:30:18.923Z,85.01
2022-11-10T12:35:24.833Z,121.67
2022-11-10T12:40:30.932Z,163.07
2022-11-10T12:45:19.967Z,214.80
2022-11-10T12:50:26.360Z,244.67
2022-11-10T12:55:32.492Z,205.76
2022-11-10T13:00:27.426Z,192.15
2022-11-10T13:05:26.792Z,112.06
2022-11-10T13:10:15.894Z,107.74
2022-11-10T13:15:21.943Z,162.92
2022-11-10T13:20:31.517Z,159.61
2022-11-10T13:25:17.016Z,130.02
2022-11-10T13:30:23.211Z,132.96
2022-11-10T13:35:29.154Z,118.78
2022-11-10T13:40:18.229Z,105.16
2022-11-10T13:45:24.295Z,76.52
2022-11-10T13:50:29.734Z,70.25
2022-11-10T13:55:18.735Z,65.51
2022-11-10T14:00:25.106Z,67.51
2022-11-10T14:05:30.794Z,67.83
2022-11-10T14:10:20.661Z,56.97
2022-11-10T14:15:25.997Z,43.16
2022-11-10T14:20:31.928Z,44.54
2022-11-10T14:25:20.951Z,37.06
2022-11-10T14:30:27.057Z,38.38
2022-11-10T14:35:16.060Z,39.77
2022-11-10T14:40:22.215Z,34.34
2022-11-10T14:45:28.244Z,32.10
2022-11-10T14:50:17.092Z,30.59
2022-11-10T14:55:23.158Z,26.80
2022-11-10T15:00:29.368Z,27.30
2022-11-10T15:05:17.545Z,28.49
2022-11-10T15:10:23.662Z,21.11
2022-11-10T15:15:29.669Z,16.42
2022-11-10T15:20:18.780Z,13.20
2022-11-10T15:25:25.056Z,9.87
2022-11-10T15:30:30.843Z,6.36
2022-11-10T15:35:19.874Z,3.43
2022-11-10T15:40:25.939Z,1.33
2022-11-10T15:45:31.985Z,0.09
2022-11-10T15:50:21.265Z,0.00
2022-11-10T15:55:27.359Z,0.00
2022-11-10T16:00:16.745Z,0.00
2022-11-10T16:05:21.784Z,0.00
2022-11-10T16:10:27.869Z,0.00
2022-11-10T16:15:16.871Z,0.00
2022-11-10T16:20:22.964Z,0.00
2022-11-10T16:25:29.074Z,0.00
2022-11-10T16:30:18.043Z,0.00
2022-11-10T16:35:24.081Z,0.00
2022-11-10T16:40:30.223Z,0.00
2022-11-10T16:45:19.186Z,0.00
2022-11-10T16:50:24.956Z,0.00
2022-11-10T16:55:30.950Z,0.00
2022-11-10T17:00:20.211Z,0.00
2022-11-10T17:05:26.428Z,0.00
2022-11-10T17:10:32.411Z,0.00
2022-11-10T17:15:21.518Z,0.00
2022-11-10T17:20:28.369Z,0.00
2022-11-10T17:25:16.566Z,0.00
2022-11-10T17:30:22.914Z,0.00
2022-11-10T17:35:28.699Z,0.00
2022-11-10T17:40:17.846Z,0.00
2022-11-10T17:45:23.857Z,0.00
2022-11-10T17:50:29.190Z,0.00
2022-11-10T17:55:18.186Z,0.00
2022-11-10T18:00:24.394Z,0.00
2022-11-10T18:05:30.484Z,0.00
2022-11-10T18:10:19.493Z,0.00
2022-11-10T18:15:25.585Z,0.00
2022-11-10T18:20:31.667Z,0.00
2022-11-10T18:25:20.629Z,0.00
2022-11-10T18:30:29.825Z,0.00
2022-11-10T18:35:33.731Z,0.00
2022-11-10T18:40:21.866Z,0.00
2022-11-10T18:45:27.906Z,0.00
2022-11-10T18:50:16.547Z,0.00
2022-11-10T18:55:22.649Z,0.00
2022-11-10T19:00:28.719Z,0.00
2022-11-10T19:05:18.108Z,0.00
2022-11-10T19:10:24.165Z,0.00
2022-11-10T19:15:30.247Z,0.00
2022-11-10T19:20:19.258Z,0.00
2022-11-10T19:25:25.269Z,0.00
2022-11-10T19:30:31.624Z,0.00
2022-11-10T19:35:20.388Z,0.00
2022-11-10T19:40:26.446Z,0.00
2022-11-10T19:45:32.522Z,0.00
2022-11-10T19:50:20.829Z,0.00
2022-11-10T19:55:26.905Z,0.00
2022-11-10T20:00:16.235Z,0.00
2022-11-10T20:05:22.330Z,0.00
2022-11-10T20:10:28.487Z,0.00
2022-11-10T20:15:17.460Z,0.00
2022-11-10T20:20:23.531Z,0.00
2022-11-10T20:25:29.531Z,0.00
2022-11-10T20:30:23.473Z,0.00
2022-11-10T20:35:24.664Z,0.00
2022-11-10T20:40:44.131Z,0.00
2022-11-10T20:45:19.770Z,0.00
2022-11-10T20:50:25.268Z,0.00
2022-11-10T20:55:52.616Z,0.00
2022-11-10T21:00:20.548Z,0.00
2022-11-10T21:05:25.723Z,0.00
2022-11-10T21:10:31.773Z,0.00
2022-11-10T21:15:20.788Z,0.00
2022-11-10T21:20:26.926Z,0.00
2022-11-10T21:25:15.942Z,0.00
2022-11-10T21:30:22.020Z,0.00
2022-11-10T21:35:28.110Z,0.00
2022-11-10T21:40:17.084Z,0.00
2022-11-10T21:45:23.219Z,0.00
2022-11-10T21:50:28.556Z,0.00
2022-11-10T21:55:17.612Z,0.00
2022-11-10T22:00:23.763Z,0.00
2022-11-10T22:05:29.878Z,0.00
2022-11-10T22:10:18.892Z,0.00
2022-11-10T22:15:25.040Z,0.00
2022-11-10T22:20:31.049Z,0.00
2022-11-10T22:25:20.045Z,0.00
2022-11-10T22:30:26.144Z,0.00
2022-11-10T22:35:32.385Z,0.00
2022-11-10T22:40:21.219Z,0.00
2022-11-10T22:45:27.311Z,0.00
2022-11-10T22:50:15.808Z,0.00
2022-11-10T22:55:21.872Z,0.00
2022-11-10T23:00:27.971Z,0.00
2022-11-10T23:05:17.306Z,0.00
2022-11-10T23:10:23.366Z,0.00
2022-11-10T23:15:29.402Z,0.00
2022-11-10T23:20:18.486Z,0.00
2022-11-10T23:25:24.489Z,0.00
2022-11-10T23:30:30.555Z,0.00
2022-11-10T23:35:19.624Z,0.00
2022-11-10T23:40:25.903Z,0.00
2022-11-10T23:46:00.040Z,0.00
2022-11-10T23:50:20.357Z,0.00
2022-11-10T23:55:26.403Z,0.00
